sensor_id;sensor_type;location;lat;lon;timestamp;P1;durP1;ratioP1;P2;durP2;ratioP2
5217;SDS011;26539;51.064;6.346;2023-03-19T00:05:15;5.30;;;3.23;;
5217;SDS011;26539;51.064;6.346;2023-03-19T00:14:36;5.73;;;3.20;;
5217;SDS011;26539;51.064;6.346;2023-03-19T00:17:31;4.83;;;3.43;;
5217;SDS011;26539;51.064;6.346;2023-03-19T00:19:58;7.67;;;4.53;;
5217;SDS011;26539;51.064;6.346;2023-03-19T00:46:06;4.53;;;3.70;;
5217;SDS011;26539;51.064;6.346;2023-03-19T00:52:24;4.33;;;3.50;;
5217;SDS011;26539;51.064;6.346;2023-03-19T00:55:32;5.27;;;2.80;;
5217;SDS011;26539;51.064;6.346;2023-03-19T01:01:44;3.00;;;2.57;;
5217;SDS011;26539;51.064;6.346;2023-03-19T01:17:46;3.87;;;2.80;;
5217;SDS011;26539;51.064;6.346;2023-03-19T01:20:39;3.47;;;2.60;;
5217;SDS011;26539;51.064;6.346;2023-03-19T01:23:47;3.00;;;2.33;;
5217;SDS011;26539;51.064;6.346;2023-03-19T01:33:18;4.20;;;2.93;;
5217;SDS011;26539;51.064;6.346;2023-03-19T01:36:12;2.70;;;2.50;;
5217;SDS011;26539;51.064;6.346;2023-03-19T01:42:34;3.30;;;2.77;;
5217;SDS011;26539;51.064;6.346;2023-03-19T01:48:57;5.30;;;3.43;;
5217;SDS011;26539;51.064;6.346;2023-03-19T01:51:43;3.90;;;3.47;;
5217;SDS011;26539;51.064;6.346;2023-03-19T01:54:32;12.73;;;3.93;;
5217;SDS011;26539;51.064;6.346;2023-03-19T01:57:42;4.67;;;3.43;;
5217;SDS011;26539;51.064;6.346;2023-03-19T02:00:36;7.70;;;4.03;;
5217;SDS011;26539;51.064;6.346;2023-03-19T02:03:28;5.03;;;3.80;;
5217;SDS011;26539;51.064;6.346;2023-03-19T02:06:24;7.13;;;3.60;;
5217;SDS011;26539;51.064;6.346;2023-03-19T02:18:44;5.40;;;4.20;;
5217;SDS011;26539;51.064;6.346;2023-03-19T02:21:41;6.53;;;4.07;;
5217;SDS011;26539;51.064;6.346;2023-03-19T02:28:14;7.90;;;4.00;;
5217;SDS011;26539;51.064;6.346;2023-03-19T02:31:12;5.10;;;3.80;;
5217;SDS011;26539;51.064;6.346;2023-03-19T02:40:50;6.23;;;4.03;;
5217;SDS011;26539;51.064;6.346;2023-03-19T02:43:25;8.30;;;3.93;;
5217;SDS011;26539;51.064;6.346;2023-03-19T02:46:00;4.20;;;3.80;;
5217;SDS011;26539;51.064;6.346;2023-03-19T02:48:28;4.30;;;3.30;;
5217;SDS011;26539;51.064;6.346;2023-03-19T02:51:02;4.87;;;3.30;;
5217;SDS011;26539;51.064;6.346;2023-03-19T02:53:28;4.80;;;2.97;;
5217;SDS011;26539;51.064;6.346;2023-03-19T02:55:54;5.00;;;3.03;;
5217;SDS011;26539;51.064;6.346;2023-03-19T02:58:19;3.97;;;2.90;;
5217;SDS011;26539;51.064;6.346;2023-03-19T03:00:50;5.80;;;3.07;;
5217;SDS011;26539;51.064;6.346;2023-03-19T03:06:59;6.07;;;2.90;;
5217;SDS011;26539;51.064;6.346;2023-03-19T03:10:11;3.63;;;2.70;;
5217;SDS011;26539;51.064;6.346;2023-03-19T03:13:17;4.10;;;3.23;;
5217;SDS011;26539;51.064;6.346;2023-03-19T03:16:22;6.70;;;3.20;;
5217;SDS011;26539;51.064;6.346;2023-03-19T03:22:39;4.30;;;3.10;;
5217;SDS011;26539;51.064;6.346;2023-03-19T03:25:47;4.40;;;3.30;;
5217;SDS011;26539;51.064;6.346;2023-03-19T03:28:39;5.20;;;3.30;;
5217;SDS011;26539;51.064;6.346;2023-03-19T03:31:05;4.60;;;3.47;;
5217;SDS011;26539;51.064;6.346;2023-03-19T03:33:33;4.20;;;2.83;;
5217;SDS011;26539;51.064;6.346;2023-03-19T03:35:59;5.07;;;2.97;;
5217;SDS011;26539;51.064;6.346;2023-03-19T03:38:32;5.33;;;2.90;;
5217;SDS011;26539;51.064;6.346;2023-03-19T03:40:59;4.20;;;2.87;;
5217;SDS011;26539;51.064;6.346;2023-03-19T03:43:37;5.30;;;3.07;;
5217;SDS011;26539;51.064;6.346;2023-03-19T03:46:05;3.47;;;3.17;;
5217;SDS011;26539;51.064;6.346;2023-03-19T03:48:56;5.53;;;3.63;;
5217;SDS011;26539;51.064;6.346;2023-03-19T03:55:37;4.30;;;3.00;;
5217;SDS011;26539;51.064;6.346;2023-03-19T04:01:24;4.10;;;3.03;;
5217;SDS011;26539;51.064;6.346;2023-03-19T04:07:25;5.93;;;3.60;;
5217;SDS011;26539;51.064;6.346;2023-03-19T04:17:29;4.83;;;3.10;;
5217;SDS011;26539;51.064;6.346;2023-03-19T04:20:38;3.77;;;3.07;;
5217;SDS011;26539;51.064;6.346;2023-03-19T04:23:05;4.03;;;3.43;;
5217;SDS011;26539;51.064;6.346;2023-03-19T04:29:14;8.50;;;3.73;;
5217;SDS011;26539;51.064;6.346;2023-03-19T04:35:33;5.47;;;3.30;;
5217;SDS011;26539;51.064;6.346;2023-03-19T04:41:26;5.13;;;3.93;;
5217;SDS011;26539;51.064;6.346;2023-03-19T04:44:32;4.00;;;3.60;;
5217;SDS011;26539;51.064;6.346;2023-03-19T04:47:38;4.40;;;3.30;;
5217;SDS011;26539;51.064;6.346;2023-03-19T04:50:16;5.70;;;3.60;;
5217;SDS011;26539;51.064;6.346;2023-03-19T04:56:36;4.60;;;3.90;;
5217;SDS011;26539;51.064;6.346;2023-03-19T04:59:29;7.83;;;3.80;;
5217;SDS011;26539;51.064;6.346;2023-03-19T05:05:13;5.13;;;3.80;;
5217;SDS011;26539;51.064;6.346;2023-03-19T05:15:09;4.27;;;3.87;;
5217;SDS011;26539;51.064;6.346;2023-03-19T05:17:58;6.60;;;4.97;;
5217;SDS011;26539;51.064;6.346;2023-03-19T05:24:15;4.87;;;4.37;;
5217;SDS011;26539;51.064;6.346;2023-03-19T05:30:34;5.63;;;4.40;;
5217;SDS011;26539;51.064;6.346;2023-03-19T05:36:42;5.30;;;4.47;;
5217;SDS011;26539;51.064;6.346;2023-03-19T05:39:20;5.57;;;4.73;;
5217;SDS011;26539;51.064;6.346;2023-03-19T05:42:08;7.20;;;4.60;;
5217;SDS011;26539;51.064;6.346;2023-03-19T05:48:01;5.60;;;4.17;;
5217;SDS011;26539;51.064;6.346;2023-03-19T05:51:28;6.00;;;5.07;;
5217;SDS011;26539;51.064;6.346;2023-03-19T05:54:16;5.80;;;4.60;;
5217;SDS011;26539;51.064;6.346;2023-03-19T05:57:29;6.47;;;5.03;;
5217;SDS011;26539;51.064;6.346;2023-03-19T06:00:18;5.97;;;4.60;;
5217;SDS011;26539;51.064;6.346;2023-03-19T06:02:47;6.93;;;5.20;;
5217;SDS011;26539;51.064;6.346;2023-03-19T06:12:14;5.40;;;4.40;;
5217;SDS011;26539;51.064;6.346;2023-03-19T06:18:21;5.40;;;4.63;;
5217;SDS011;26539;51.064;6.346;2023-03-19T06:24:11;4.90;;;4.40;;
5217;SDS011;26539;51.064;6.346;2023-03-19T06:27:07;5.37;;;4.80;;
5217;SDS011;26539;51.064;6.346;2023-03-19T06:33:24;5.30;;;4.80;;
5217;SDS011;26539;51.064;6.346;2023-03-19T06:42:45;6.43;;;5.30;;
5217;SDS011;26539;51.064;6.346;2023-03-19T06:45:33;5.73;;;5.07;;
5217;SDS011;26539;51.064;6.346;2023-03-19T06:48:31;5.53;;;5.03;;
5217;SDS011;26539;51.064;6.346;2023-03-19T06:57:49;6.00;;;5.40;;
5217;SDS011;26539;51.064;6.346;2023-03-19T07:00:59;6.90;;;4.87;;
5217;SDS011;26539;51.064;6.346;2023-03-19T07:07:02;5.13;;;4.63;;
5217;SDS011;26539;51.064;6.346;2023-03-19T07:13:05;4.47;;;4.07;;
5217;SDS011;26539;51.064;6.346;2023-03-19T07:16:13;4.63;;;3.93;;
5217;SDS011;26539;51.064;6.346;2023-03-19T07:32:22;5.20;;;4.17;;
5217;SDS011;26539;51.064;6.346;2023-03-19T07:35:08;5.20;;;4.33;;
5217;SDS011;26539;51.064;6.346;2023-03-19T07:37:52;6.43;;;5.10;;
5217;SDS011;26539;51.064;6.346;2023-03-19T07:44:03;5.23;;;4.53;;
5217;SDS011;26539;51.064;6.346;2023-03-19T08:03:30;4.73;;;4.20;;
5217;SDS011;26539;51.064;6.346;2023-03-19T08:06:12;4.00;;;3.60;;
5217;SDS011;26539;51.064;6.346;2023-03-19T08:08:52;3.77;;;3.47;;
5217;SDS011;26539;51.064;6.346;2023-03-19T08:11:58;4.10;;;3.37;;
5217;SDS011;26539;51.064;6.346;2023-03-19T08:15:31;4.37;;;2.80;;
5217;SDS011;26539;51.064;6.346;2023-03-19T08:21:53;3.53;;;3.23;;
5217;SDS011;26539;51.064;6.346;2023-03-19T08:38:00;2.50;;;2.30;;
5217;SDS011;26539;51.064;6.346;2023-03-19T08:44:50;2.70;;;2.50;;
5217;SDS011;26539;51.064;6.346;2023-03-19T08:47:58;2.87;;;2.37;;
5217;SDS011;26539;51.064;6.346;2023-03-19T08:51:00;3.30;;;3.00;;
5217;SDS011;26539;51.064;6.346;2023-03-19T08:53:56;3.17;;;2.97;;
5217;SDS011;26539;51.064;6.346;2023-03-19T08:56:21;3.27;;;3.00;;
5217;SDS011;26539;51.064;6.346;2023-03-19T08:58:52;2.90;;;2.67;;
5217;SDS011;26539;51.064;6.346;2023-03-19T09:01:27;3.03;;;2.77;;
5217;SDS011;26539;51.064;6.346;2023-03-19T09:03:57;3.03;;;2.73;;
5217;SDS011;26539;51.064;6.346;2023-03-19T09:06:42;2.93;;;2.73;;
5217;SDS011;26539;51.064;6.346;2023-03-19T09:09:09;3.00;;;2.50;;
5217;SDS011;26539;51.064;6.346;2023-03-19T09:25:26;8.30;;;3.60;;
5217;SDS011;26539;51.064;6.346;2023-03-19T09:28:32;3.70;;;3.40;;
5217;SDS011;26539;51.064;6.346;2023-03-19T09:31:55;4.00;;;3.60;;
5217;SDS011;26539;51.064;6.346;2023-03-19T09:34:32;4.03;;;3.63;;
5217;SDS011;26539;51.064;6.346;2023-03-19T09:37:23;4.80;;;4.03;;
5217;SDS011;26539;51.064;6.346;2023-03-19T09:49:59;4.63;;;4.23;;
5217;SDS011;26539;51.064;6.346;2023-03-19T09:55:53;4.80;;;4.40;;
5217;SDS011;26539;51.064;6.346;2023-03-19T09:58:46;9.90;;;4.60;;
5217;SDS011;26539;51.064;6.346;2023-03-19T10:18:15;3.97;;;3.57;;
5217;SDS011;26539;51.064;6.346;2023-03-19T10:21:00;4.50;;;3.60;;
5217;SDS011;26539;51.064;6.346;2023-03-19T10:26:57;4.40;;;4.00;;
5217;SDS011;26539;51.064;6.346;2023-03-19T10:29:28;5.10;;;4.33;;
5217;SDS011;26539;51.064;6.346;2023-03-19T10:31:59;4.93;;;4.40;;
5217;SDS011;26539;51.064;6.346;2023-03-19T10:34:50;5.70;;;4.93;;
5217;SDS011;26539;51.064;6.346;2023-03-19T10:38:06;6.53;;;4.63;;
5217;SDS011;26539;51.064;6.346;2023-03-19T10:51:00;8.07;;;5.70;;
5217;SDS011;26539;51.064;6.346;2023-03-19T10:53:32;5.07;;;4.57;;
5217;SDS011;26539;51.064;6.346;2023-03-19T11:00:01;4.47;;;4.03;;
5217;SDS011;26539;51.064;6.346;2023-03-19T11:06:37;5.70;;;3.90;;
5217;SDS011;26539;51.064;6.346;2023-03-19T11:09:33;4.90;;;3.73;;
5217;SDS011;26539;51.064;6.346;2023-03-19T11:12:44;4.47;;;4.00;;
5217;SDS011;26539;51.064;6.346;2023-03-19T11:15:19;4.87;;;4.40;;
5217;SDS011;26539;51.064;6.346;2023-03-19T11:17:59;4.73;;;4.20;;
5217;SDS011;26539;51.064;6.346;2023-03-19T11:20:34;4.10;;;3.30;;
5217;SDS011;26539;51.064;6.346;2023-03-19T11:40:11;4.30;;;3.30;;
5217;SDS011;26539;51.064;6.346;2023-03-19T11:46:10;4.37;;;3.67;;
5217;SDS011;26539;51.064;6.346;2023-03-19T11:53:07;4.97;;;3.80;;
5217;SDS011;26539;51.064;6.346;2023-03-19T11:55:47;3.67;;;3.37;;
5217;SDS011;26539;51.064;6.346;2023-03-19T11:58:32;2.80;;;2.60;;
5217;SDS011;26539;51.064;6.346;2023-03-19T12:01:19;3.30;;;3.00;;
5217;SDS011;26539;51.064;6.346;2023-03-19T12:07:20;3.00;;;2.80;;
5217;SDS011;26539;51.064;6.346;2023-03-19T12:13:04;3.50;;;3.20;;
5217;SDS011;26539;51.064;6.346;2023-03-19T12:16:13;4.20;;;2.70;;
5217;SDS011;26539;51.064;6.346;2023-03-19T12:19:00;3.30;;;3.00;;
5217;SDS011;26539;51.064;6.346;2023-03-19T12:32:36;4.70;;;4.07;;
5217;SDS011;26539;51.064;6.346;2023-03-19T12:35:21;4.17;;;3.77;;
5217;SDS011;26539;51.064;6.346;2023-03-19T12:40:32;5.57;;;4.97;;
5217;SDS011;26539;51.064;6.346;2023-03-19T12:43:01;6.60;;;5.60;;
5217;SDS011;26539;51.064;6.346;2023-03-19T12:45:53;5.60;;;5.00;;
5217;SDS011;26539;51.064;6.346;2023-03-19T12:48:24;5.50;;;4.87;;
5217;SDS011;26539;51.064;6.346;2023-03-19T12:51:14;5.17;;;4.37;;
5217;SDS011;26539;51.064;6.346;2023-03-19T12:54:20;5.70;;;5.20;;
5217;SDS011;26539;51.064;6.346;2023-03-19T12:57:00;4.67;;;4.27;;
5217;SDS011;26539;51.064;6.346;2023-03-19T12:59:42;3.90;;;3.60;;
5217;SDS011;26539;51.064;6.346;2023-03-19T13:02:34;3.73;;;3.37;;
5217;SDS011;26539;51.064;6.346;2023-03-19T13:10:45;2.40;;;2.20;;
5217;SDS011;26539;51.064;6.346;2023-03-19T13:13:22;3.37;;;2.90;;
5217;SDS011;26539;51.064;6.346;2023-03-19T13:15:58;3.20;;;2.90;;
5217;SDS011;26539;51.064;6.346;2023-03-19T13:26:57;3.13;;;2.17;;
5217;SDS011;26539;51.064;6.346;2023-03-19T13:29:28;2.50;;;2.10;;
5217;SDS011;26539;51.064;6.346;2023-03-19T13:32:01;2.20;;;1.90;;
5217;SDS011;26539;51.064;6.346;2023-03-19T13:34:33;2.47;;;2.20;;
5217;SDS011;26539;51.064;6.346;2023-03-19T13:37:18;3.00;;;2.40;;
5217;SDS011;26539;51.064;6.346;2023-03-19T13:39:46;2.70;;;2.20;;
5217;SDS011;26539;51.064;6.346;2023-03-19T13:47:46;2.93;;;2.10;;
5217;SDS011;26539;51.064;6.346;2023-03-19T14:03:23;5.83;;;1.93;;
5217;SDS011;26539;51.064;6.346;2023-03-19T14:05:59;2.40;;;1.67;;
5217;SDS011;26539;51.064;6.346;2023-03-19T14:08:31;1.70;;;1.40;;
5217;SDS011;26539;51.064;6.346;2023-03-19T14:11:06;2.43;;;0.97;;
5217;SDS011;26539;51.064;6.346;2023-03-19T14:13:33;1.40;;;0.90;;
5217;SDS011;26539;51.064;6.346;2023-03-19T14:16:06;2.27;;;0.60;;
5217;SDS011;26539;51.064;6.346;2023-03-19T14:18:32;1.73;;;1.00;;
5217;SDS011;26539;51.064;6.346;2023-03-19T14:21:04;1.70;;;0.70;;
5217;SDS011;26539;51.064;6.346;2023-03-19T14:23:53;2.13;;;0.70;;
5217;SDS011;26539;51.064;6.346;2023-03-19T14:26:22;1.20;;;0.70;;
5217;SDS011;26539;51.064;6.346;2023-03-19T14:28:55;1.70;;;1.10;;
5217;SDS011;26539;51.064;6.346;2023-03-19T14:32:07;3.07;;;1.40;;
5217;SDS011;26539;51.064;6.346;2023-03-19T14:34:23;1.67;;;1.20;;
5217;SDS011;26539;51.064;6.346;2023-03-19T14:36:54;1.90;;;0.73;;
5217;SDS011;26539;51.064;6.346;2023-03-19T14:39:43;3.00;;;0.90;;
5217;SDS011;26539;51.064;6.346;2023-03-19T14:51:07;1.90;;;0.70;;
5217;SDS011;26539;51.064;6.346;2023-03-19T14:56:29;1.27;;;0.70;;
5217;SDS011;26539;51.064;6.346;2023-03-19T14:58:57;2.43;;;0.90;;
5217;SDS011;26539;51.064;6.346;2023-03-19T15:01:32;1.30;;;0.87;;
5217;SDS011;26539;51.064;6.346;2023-03-19T15:04:07;2.90;;;1.30;;
5217;SDS011;26539;51.064;6.346;2023-03-19T15:10:19;2.40;;;1.60;;
5217;SDS011;26539;51.064;6.346;2023-03-19T15:18:52;3.87;;;2.30;;
5217;SDS011;26539;51.064;6.346;2023-03-19T15:21:20;4.70;;;2.87;;
5217;SDS011;26539;51.064;6.346;2023-03-19T15:23:46;6.00;;;3.10;;
5217;SDS011;26539;51.064;6.346;2023-03-19T15:26:14;3.37;;;2.93;;
5217;SDS011;26539;51.064;6.346;2023-03-19T15:28:52;5.33;;;3.43;;
5217;SDS011;26539;51.064;6.346;2023-03-19T15:34:27;3.67;;;3.20;;
5217;SDS011;26539;51.064;6.346;2023-03-19T15:40:22;5.03;;;3.00;;
5217;SDS011;26539;51.064;6.346;2023-03-19T15:42:53;3.10;;;2.67;;
5217;SDS011;26539;51.064;6.346;2023-03-19T15:45:20;3.87;;;3.00;;
5217;SDS011;26539;51.064;6.346;2023-03-19T15:48:00;3.40;;;3.00;;
5217;SDS011;26539;51.064;6.346;2023-03-19T15:50:33;5.37;;;3.43;;
5217;SDS011;26539;51.064;6.346;2023-03-19T15:53:02;5.20;;;3.47;;
5217;SDS011;26539;51.064;6.346;2023-03-19T15:55:33;4.57;;;2.77;;
5217;SDS011;26539;51.064;6.346;2023-03-19T16:04:22;3.50;;;2.30;;
5217;SDS011;26539;51.064;6.346;2023-03-19T16:06:59;7.10;;;3.17;;
5217;SDS011;26539;51.064;6.346;2023-03-19T16:12:47;6.57;;;3.77;;
5217;SDS011;26539;51.064;6.346;2023-03-19T16:15:44;4.83;;;3.57;;
5217;SDS011;26539;51.064;6.346;2023-03-19T16:25:47;7.30;;;4.23;;
5217;SDS011;26539;51.064;6.346;2023-03-19T16:28:55;7.07;;;4.13;;
5217;SDS011;26539;51.064;6.346;2023-03-19T16:31:25;6.37;;;4.33;;
5217;SDS011;26539;51.064;6.346;2023-03-19T16:33:53;7.13;;;4.63;;
5217;SDS011;26539;51.064;6.346;2023-03-19T16:36:29;4.30;;;3.73;;
5217;SDS011;26539;51.064;6.346;2023-03-19T16:45:43;6.10;;;4.43;;
5217;SDS011;26539;51.064;6.346;2023-03-19T16:48:48;5.30;;;4.23;;
5217;SDS011;26539;51.064;6.346;2023-03-19T16:51:17;4.90;;;4.20;;
5217;SDS011;26539;51.064;6.346;2023-03-19T16:53:44;5.10;;;3.50;;
5217;SDS011;26539;51.064;6.346;2023-03-19T16:56:14;7.20;;;4.00;;
5217;SDS011;26539;51.064;6.346;2023-03-19T17:22:16;4.10;;;3.40;;
5217;SDS011;26539;51.064;6.346;2023-03-19T17:28:43;3.43;;;2.97;;
5217;SDS011;26539;51.064;6.346;2023-03-19T17:31:49;5.80;;;3.53;;
5217;SDS011;26539;51.064;6.346;2023-03-19T17:34:17;5.83;;;3.30;;
5217;SDS011;26539;51.064;6.346;2023-03-19T17:36:48;4.20;;;2.90;;
5217;SDS011;26539;51.064;6.346;2023-03-19T17:39:16;4.60;;;3.60;;
5217;SDS011;26539;51.064;6.346;2023-03-19T17:41:58;5.83;;;3.83;;
5217;SDS011;26539;51.064;6.346;2023-03-19T17:44:24;6.43;;;3.23;;
5217;SDS011;26539;51.064;6.346;2023-03-19T17:46:54;6.23;;;3.80;;
5217;SDS011;26539;51.064;6.346;2023-03-19T17:53:10;5.87;;;5.10;;
5217;SDS011;26539;51.064;6.346;2023-03-19T17:55:52;8.17;;;5.13;;
5217;SDS011;26539;51.064;6.346;2023-03-19T17:59:05;16.80;;;5.30;;
5217;SDS011;26539;51.064;6.346;2023-03-19T18:02:24;6.43;;;4.83;;
5217;SDS011;26539;51.064;6.346;2023-03-19T18:12:07;12.90;;;5.33;;
5217;SDS011;26539;51.064;6.346;2023-03-19T18:18:21;6.60;;;5.67;;
5217;SDS011;26539;51.064;6.346;2023-03-19T18:21:27;11.50;;;10.40;;
5217;SDS011;26539;51.064;6.346;2023-03-19T18:27:22;9.13;;;5.60;;
5217;SDS011;26539;51.064;6.346;2023-03-19T18:33:40;8.40;;;4.70;;
5217;SDS011;26539;51.064;6.346;2023-03-19T18:36:41;6.73;;;5.37;;
5217;SDS011;26539;51.064;6.346;2023-03-19T18:42:10;12.73;;;8.23;;
5217;SDS011;26539;51.064;6.346;2023-03-19T18:44:41;12.50;;;8.70;;
5217;SDS011;26539;51.064;6.346;2023-03-19T18:50:54;12.03;;;8.70;;
5217;SDS011;26539;51.064;6.346;2023-03-19T18:59:53;23.93;;;13.60;;
5217;SDS011;26539;51.064;6.346;2023-03-19T19:05:45;26.47;;;14.90;;
5217;SDS011;26539;51.064;6.346;2023-03-19T19:08:14;22.07;;;14.73;;
5217;SDS011;26539;51.064;6.346;2023-03-19T19:10:43;27.60;;;18.70;;
5217;SDS011;26539;51.064;6.346;2023-03-19T19:13:17;26.23;;;16.77;;
5217;SDS011;26539;51.064;6.346;2023-03-19T19:16:02;25.13;;;17.70;;
5217;SDS011;26539;51.064;6.346;2023-03-19T19:18:39;31.20;;;19.00;;
5217;SDS011;26539;51.064;6.346;2023-03-19T19:21:04;28.67;;;18.87;;
5217;SDS011;26539;51.064;6.346;2023-03-19T19:23:30;33.67;;;18.57;;
5217;SDS011;26539;51.064;6.346;2023-03-19T19:26:06;25.20;;;18.13;;
5217;SDS011;26539;51.064;6.346;2023-03-19T19:28:37;28.40;;;19.60;;
5217;SDS011;26539;51.064;6.346;2023-03-19T19:31:10;30.97;;;21.70;;
5217;SDS011;26539;51.064;6.346;2023-03-19T19:33:49;35.90;;;21.20;;
5217;SDS011;26539;51.064;6.346;2023-03-19T19:36:15;38.83;;;21.20;;
5217;SDS011;26539;51.064;6.346;2023-03-19T19:38:44;34.63;;;21.90;;
5217;SDS011;26539;51.064;6.346;2023-03-19T19:41:19;41.63;;;23.67;;
5217;SDS011;26539;51.064;6.346;2023-03-19T19:43:46;33.53;;;22.67;;
5217;SDS011;26539;51.064;6.346;2023-03-19T19:46:25;31.23;;;21.10;;
5217;SDS011;26539;51.064;6.346;2023-03-19T19:48:59;33.57;;;21.30;;
5217;SDS011;26539;51.064;6.346;2023-03-19T19:51:28;36.53;;;22.10;;
5217;SDS011;26539;51.064;6.346;2023-03-19T19:54:34;35.23;;;22.37;;
5217;SDS011;26539;51.064;6.346;2023-03-19T19:57:03;33.93;;;20.77;;
5217;SDS011;26539;51.064;6.346;2023-03-19T20:03:19;37.17;;;20.50;;
5217;SDS011;26539;51.064;6.346;2023-03-19T20:06:27;34.80;;;20.17;;
5217;SDS011;26539;51.064;6.346;2023-03-19T20:22:26;26.03;;;18.27;;
5217;SDS011;26539;51.064;6.346;2023-03-19T20:24:54;22.20;;;17.37;;
5217;SDS011;26539;51.064;6.346;2023-03-19T20:27:24;20.87;;;16.10;;
5217;SDS011;26539;51.064;6.346;2023-03-19T20:30:03;27.00;;;18.83;;
5217;SDS011;26539;51.064;6.346;2023-03-19T20:32:42;22.70;;;14.93;;
5217;SDS011;26539;51.064;6.346;2023-03-19T20:38:05;22.80;;;16.70;;
5217;SDS011;26539;51.064;6.346;2023-03-19T20:40:32;22.23;;;14.53;;
5217;SDS011;26539;51.064;6.346;2023-03-19T20:43:00;17.23;;;13.27;;
5217;SDS011;26539;51.064;6.346;2023-03-19T20:45:32;22.10;;;13.63;;
5217;SDS011;26539;51.064;6.346;2023-03-19T20:48:11;21.60;;;13.60;;
5217;SDS011;26539;51.064;6.346;2023-03-19T20:50:42;18.33;;;13.50;;
5217;SDS011;26539;51.064;6.346;2023-03-19T20:53:18;20.17;;;12.90;;
5217;SDS011;26539;51.064;6.346;2023-03-19T20:55:52;21.00;;;13.67;;
5217;SDS011;26539;51.064;6.346;2023-03-19T20:58:23;20.77;;;13.67;;
5217;SDS011;26539;51.064;6.346;2023-03-19T21:00:56;18.47;;;12.90;;
5217;SDS011;26539;51.064;6.346;2023-03-19T21:03:25;22.57;;;12.10;;
5217;SDS011;26539;51.064;6.346;2023-03-19T21:05:56;19.90;;;11.03;;
5217;SDS011;26539;51.064;6.346;2023-03-19T21:08:32;14.87;;;11.00;;
5217;SDS011;26539;51.064;6.346;2023-03-19T21:11:00;16.43;;;11.80;;
5217;SDS011;26539;51.064;6.346;2023-03-19T21:13:29;20.13;;;11.17;;
5217;SDS011;26539;51.064;6.346;2023-03-19T21:16:12;18.70;;;12.17;;
5217;SDS011;26539;51.064;6.346;2023-03-19T21:18:43;13.93;;;10.70;;
5217;SDS011;26539;51.064;6.346;2023-03-19T21:21:12;15.03;;;11.77;;
5217;SDS011;26539;51.064;6.346;2023-03-19T21:24:00;17.73;;;12.10;;
5217;SDS011;26539;51.064;6.346;2023-03-19T21:26:51;17.00;;;10.33;;
5217;SDS011;26539;51.064;6.346;2023-03-19T21:39:19;20.13;;;12.27;;
5217;SDS011;26539;51.064;6.346;2023-03-19T21:41:55;19.00;;;12.83;;
5217;SDS011;26539;51.064;6.346;2023-03-19T21:44:41;17.77;;;12.33;;
5217;SDS011;26539;51.064;6.346;2023-03-19T21:47:12;17.03;;;13.00;;
5217;SDS011;26539;51.064;6.346;2023-03-19T21:49:41;20.27;;;13.03;;
5217;SDS011;26539;51.064;6.346;2023-03-19T21:52:11;19.87;;;13.50;;
5217;SDS011;26539;51.064;6.346;2023-03-19T21:54:48;22.57;;;13.83;;
5217;SDS011;26539;51.064;6.346;2023-03-19T21:57:25;18.57;;;13.23;;
5217;SDS011;26539;51.064;6.346;2023-03-19T21:59:54;19.53;;;12.03;;
5217;SDS011;26539;51.064;6.346;2023-03-19T22:04:53;19.50;;;13.90;;
5217;SDS011;26539;51.064;6.346;2023-03-19T22:07:20;18.90;;;13.13;;
5217;SDS011;26539;51.064;6.346;2023-03-19T22:09:48;22.33;;;13.63;;
5217;SDS011;26539;51.064;6.346;2023-03-19T22:12:23;19.40;;;12.27;;
5217;SDS011;26539;51.064;6.346;2023-03-19T22:14:51;16.20;;;12.00;;
5217;SDS011;26539;51.064;6.346;2023-03-19T22:17:18;19.90;;;14.17;;
5217;SDS011;26539;51.064;6.346;2023-03-19T22:19:46;18.70;;;13.40;;
5217;SDS011;26539;51.064;6.346;2023-03-19T22:22:15;20.57;;;13.60;;
5217;SDS011;26539;51.064;6.346;2023-03-19T22:24:40;21.07;;;13.37;;
5217;SDS011;26539;51.064;6.346;2023-03-19T22:27:07;21.60;;;14.30;;
5217;SDS011;26539;51.064;6.346;2023-03-19T22:29:43;23.63;;;15.63;;
5217;SDS011;26539;51.064;6.346;2023-03-19T22:32:12;23.17;;;16.07;;
5217;SDS011;26539;51.064;6.346;2023-03-19T22:34:48;18.97;;;14.43;;
5217;SDS011;26539;51.064;6.346;2023-03-19T22:37:35;21.80;;;15.27;;
5217;SDS011;26539;51.064;6.346;2023-03-19T22:39:59;20.83;;;14.57;;
5217;SDS011;26539;51.064;6.346;2023-03-19T22:42:27;26.23;;;15.90;;
5217;SDS011;26539;51.064;6.346;2023-03-19T22:44:53;25.30;;;15.70;;
5217;SDS011;26539;51.064;6.346;2023-03-19T22:47:24;24.53;;;16.63;;
5217;SDS011;26539;51.064;6.346;2023-03-19T22:49:52;22.43;;;16.20;;
5217;SDS011;26539;51.064;6.346;2023-03-19T22:52:17;24.43;;;15.80;;
5217;SDS011;26539;51.064;6.346;2023-03-19T22:54:43;23.00;;;16.63;;
5217;SDS011;26539;51.064;6.346;2023-03-19T22:57:20;21.20;;;14.60;;
5217;SDS011;26539;51.064;6.346;2023-03-19T22:59:45;22.53;;;15.77;;
5217;SDS011;26539;51.064;6.346;2023-03-19T23:02:14;24.90;;;16.63;;
5217;SDS011;26539;51.064;6.346;2023-03-19T23:04:40;25.87;;;17.67;;
5217;SDS011;26539;51.064;6.346;2023-03-19T23:07:10;25.83;;;19.43;;
5217;SDS011;26539;51.064;6.346;2023-03-19T23:09:37;25.97;;;17.43;;
5217;SDS011;26539;51.064;6.346;2023-03-19T23:12:04;24.37;;;18.17;;
5217;SDS011;26539;51.064;6.346;2023-03-19T23:14:31;23.50;;;17.30;;
5217;SDS011;26539;51.064;6.346;2023-03-19T23:17:09;23.50;;;17.13;;
5217;SDS011;26539;51.064;6.346;2023-03-19T23:19:43;24.20;;;17.33;;
5217;SDS011;26539;51.064;6.346;2023-03-19T23:22:14;23.50;;;15.60;;
5217;SDS011;26539;51.064;6.346;2023-03-19T23:24:43;24.80;;;16.60;;
5217;SDS011;26539;51.064;6.346;2023-03-19T23:27:29;20.83;;;14.63;;
5217;SDS011;26539;51.064;6.346;2023-03-19T23:30:26;24.70;;;15.97;;
5217;SDS011;26539;51.064;6.346;2023-03-19T23:33:11;21.30;;;15.00;;
5217;SDS011;26539;51.064;6.346;2023-03-19T23:39:41;21.93;;;15.20;;
5217;SDS011;26539;51.064;6.346;2023-03-19T23:42:06;19.70;;;13.93;;
5217;SDS011;26539;51.064;6.346;2023-03-19T23:44:48;26.03;;;15.10;;
5217;SDS011;26539;51.064;6.346;2023-03-19T23:47:24;22.50;;;15.70;;
5217;SDS011;26539;51.064;6.346;2023-03-19T23:49:54;23.90;;;15.30;;
5217;SDS011;26539;51.064;6.346;2023-03-19T23:52:20;22.43;;;14.50;;
5217;SDS011;26539;51.064;6.346;2023-03-19T23:54:48;22.83;;;15.70;;
5217;SDS011;26539;51.064;6.346;2023-03-19T23:57:29;23.13;;;15.80;;
5217;SDS011;26539;51.064;6.346;2023-03-19T23:59:55;19.57;;;13.93;;
